Calvert, Alabama
Current Conditions -  °F | °C
As of 7:56 PM on Tuesday 21 Oct 2014 (Local Time) from KMOB Reporting Station
Few Clouds Few Clouds  
Wind Chill: 60°   Ceiling: Unl
Heat Index: 60°   Visibility: 10mi
Dew Point: 56°   Wind: 0mph
Humidity: 86%   Direction: NA
Pressure: 30.01"   Gusts: NA
Location:  31.15°N, 88.01°W
Report Text: KMOB 220056Z 00000KT 10SM FEW200 16/13 A3001 RMK AO2 SLP159 T01560133
Loading
Personal Weather Stations






























Interactive Weather Map
Tropical Storm Tracking
New forecast layout! Learn more

10-Day Weather Forecast

Advertisements
Track Severe Weather on mobile